Time;durP1;ratioP1;P1;durP2;ratioP2;P2;SDS_P1;SDS_P2;PMS_P1;PMS_P2;Temp;Humidity;BMP_temperature;BMP_pressure;BME280_temperature;BME280_humidity;BME280_pressure;Samples;Min_cycle;Max_cycle;Signal;HPM_P1;HPM_P2
2021/06/16 00:00:29;;;;;;;510.30;401.95;;;;;;;;;;5024689;28;20047;-80
2021/06/16 00:02:55;;;;;;;508.95;398.42;;;;;;;;;;5014996;28;20034;-80
2021/06/16 00:05:26;;;;;;;521.90;400.83;;;;;;;;;;5022705;28;20042;-81
2021/06/16 00:07:52;;;;;;;510.45;401.98;;;;;;;;;;5007712;28;20026;-80
2021/06/16 00:10:19;;;;;;;510.80;398.95;;;;;;;;;;5019961;28;20109;-81
2021/06/16 00:12:45;;;;;;;508.52;397.20;;;;;;;;;;5008875;28;20332;-81
2021/06/16 00:15:15;;;;;;;511.92;397.85;;;;;;;;;;5018619;28;20048;-80
2021/06/16 00:17:41;;;;;;;512.70;400.43;;;;;;;;;;5010939;28;20026;-82
2021/06/16 00:20:07;;;;;;;508.15;392.83;;;;;;;;;;5022413;28;20046;-82
2021/06/16 00:22:33;;;;;;;514.08;396.73;;;;;;;;;;5025742;28;20494;-83
2021/06/16 00:24:59;;;;;;;512.65;404.50;;;;;;;;;;5026947;28;20073;-80
2021/06/16 00:27:25;;;;;;;508.10;395.98;;;;;;;;;;5008227;28;20029;-80
2021/06/16 00:29:51;;;;;;;515.63;395.70;;;;;;;;;;5022759;28;20040;-83
2021/06/16 00:32:17;;;;;;;506.88;400.30;;;;;;;;;;5007540;28;20076;-80
2021/06/16 00:34:43;;;;;;;508.27;395.55;;;;;;;;;;5021680;28;20029;-82
2021/06/16 00:37:09;;;;;;;505.20;395.42;;;;;;;;;;5008618;28;20337;-82
2021/06/16 00:39:35;;;;;;;504.60;390.02;;;;;;;;;;5013169;28;20088;-81
2021/06/16 00:42:01;;;;;;;510.92;404.77;;;;;;;;;;5003916;28;20039;-81
2021/06/16 00:44:27;;;;;;;510.02;405.83;;;;;;;;;;5029937;28;20056;-83
2021/06/16 00:46:53;;;;;;;509.83;400.08;;;;;;;;;;5021617;28;20444;-81
2021/06/16 00:49:19;;;;;;;507.10;395.38;;;;;;;;;;5007461;28;20059;-82
2021/06/16 00:51:45;;;;;;;509.10;399.23;;;;;;;;;;5019585;28;20029;-81
2021/06/16 00:54:13;;;;;;;509.77;399.10;;;;;;;;;;5020984;28;20030;-79
2021/06/16 00:56:39;;;;;;;510.88;402.52;;;;;;;;;;5014752;28;20027;-81
2021/06/16 00:59:06;;;;;;;506.35;395.50;;;;;;;;;;5025690;28;20045;-82
2021/06/16 01:01:33;;;;;;;510.38;401.15;;;;;;;;;;5018056;28;20026;-80
2021/06/16 01:04:21;;;;;;;511.40;404.58;;;;;;;;;;5021549;28;20083;-82
2021/06/16 01:06:51;;;;;;;509.80;395.30;;;;;;;;;;5026355;28;20044;-81
2021/06/16 01:09:20;;;;;;;524.30;410.02;;;;;;;;;;5007041;28;20033;-80
2021/06/16 01:12:08;;;;;;;511.75;397.23;;;;;;;;;;5006857;28;20519;-83
2021/06/16 01:14:55;;;;;;;509.90;397.50;;;;;;;;;;4980784;28;20065;-82
2021/06/16 01:17:32;;;;;;;514.53;397.77;;;;;;;;;;4985984;28;20480;-79
2021/06/16 01:19:58;;;;;;;508.05;396.73;;;;;;;;;;4980508;28;20042;-81
2021/06/16 01:22:27;;;;;;;506.05;393.70;;;;;;;;;;4970465;28;20031;-79
2021/06/16 01:24:55;;;;;;;509.77;395.98;;;;;;;;;;4985848;28;20042;-79
2021/06/16 01:27:22;;;;;;;508.70;397.40;;;;;;;;;;4986661;28;20085;-79
2021/06/16 01:29:49;;;;;;;510.88;400.63;;;;;;;;;;4983860;28;20035;-77
2021/06/16 01:32:15;;;;;;;511.42;400.67;;;;;;;;;;4983369;28;20026;-78
2021/06/16 01:34:45;;;;;;;509.70;394.17;;;;;;;;;;4979309;28;20130;-79
2021/06/16 01:37:11;;;;;;;514.22;400.65;;;;;;;;;;4983644;28;20406;-78
2021/06/16 01:39:38;;;;;;;515.38;403.67;;;;;;;;;;4980506;28;20483;-79
2021/06/16 01:42:08;;;;;;;508.83;395.15;;;;;;;;;;4971194;28;20049;-79
2021/06/16 01:44:35;;;;;;;512.97;397.90;;;;;;;;;;4984265;28;20039;-80
2021/06/16 01:47:02;;;;;;;510.10;396.48;;;;;;;;;;5013542;28;20118;-78
2021/06/16 01:49:29;;;;;;;513.40;403.42;;;;;;;;;;5008511;28;20455;-79
2021/06/16 01:51:56;;;;;;;511.85;400.50;;;;;;;;;;5007587;28;20547;-78
2021/06/16 01:54:24;;;;;;;511.20;400.48;;;;;;;;;;5022081;28;20030;-78
2021/06/16 01:56:50;;;;;;;513.95;398.23;;;;;;;;;;5019508;28;20022;-79
2021/06/16 01:59:17;;;;;;;510.48;397.08;;;;;;;;;;5022173;28;20475;-78
2021/06/16 02:01:46;;;;;;;511.35;397.42;;;;;;;;;;5019190;28;20113;-78
2021/06/16 02:04:12;;;;;;;509.55;395.60;;;;;;;;;;5021443;28;20033;-78
2021/06/16 02:06:43;;;;;;;512.08;395.20;;;;;;;;;;5008719;28;20140;-78
2021/06/16 02:09:10;;;;;;;509.35;395.38;;;;;;;;;;5008919;28;20026;-78
2021/06/16 02:11:40;;;;;;;509.75;390.70;;;;;;;;;;5010486;28;20172;-77
2021/06/16 02:14:06;;;;;;;;;;;;;;;;;;5022301;28;20021;-78
2021/06/16 02:16:41;;;;;;;505.77;379.67;;;;;;;;;;5010800;28;19919;-79
2021/06/16 02:19:09;;;;;;;507.63;385.63;;;;;;;;;;5014030;28;20033;-78
2021/06/16 02:21:35;;;;;;;507.17;384.58;;;;;;;;;;5005898;28;20029;-78
2021/06/16 02:24:01;;;;;;;508.88;389.63;;;;;;;;;;5015205;28;20048;-78
2021/06/16 02:26:27;;;;;;;508.90;394.95;;;;;;;;;;5000870;28;20072;-80
2021/06/16 02:28:53;;;;;;;510.77;393.27;;;;;;;;;;5018875;28;20088;-79
2021/06/16 02:31:19;;;;;;;506.92;386.98;;;;;;;;;;5007865;28;20447;-79
2021/06/16 02:33:48;;;;;;;508.38;388.90;;;;;;;;;;5006291;28;20132;-79
2021/06/16 02:36:14;;;;;;;509.73;392.05;;;;;;;;;;5019311;28;20030;-79
2021/06/16 02:38:43;;;;;;;507.23;388.73;;;;;;;;;;5022353;28;20029;-79
2021/06/16 02:41:11;;;;;;;511.25;395.15;;;;;;;;;;4999427;28;20784;-80
2021/06/16 02:43:38;;;;;;;505.67;383.50;;;;;;;;;;5004139;28;20388;-79
2021/06/16 02:46:06;;;;;;;509.15;395.00;;;;;;;;;;5018173;28;20352;-82
2021/06/16 02:48:34;;;;;;;507.92;389.25;;;;;;;;;;5019833;28;20058;-79
2021/06/16 02:51:00;;;;;;;505.83;385.92;;;;;;;;;;5024477;28;20036;-81
2021/06/16 02:53:27;;;;;;;506.63;391.70;;;;;;;;;;5021825;28;20083;-82
2021/06/16 02:56:01;;;;;;;507.45;387.95;;;;;;;;;;5023907;28;20087;-79
2021/06/16 02:58:27;;;;;;;504.67;389.83;;;;;;;;;;5003922;28;20483;-79
2021/06/16 03:00:59;;;;;;;508.77;395.33;;;;;;;;;;5023599;28;20581;-79
2021/06/16 03:03:25;;;;;;;504.83;382.98;;;;;;;;;;5001372;28;20073;-79
2021/06/16 03:05:52;;;;;;;507.95;387.58;;;;;;;;;;5018398;28;20026;-79
2021/06/16 03:08:20;;;;;;;505.95;381.02;;;;;;;;;;5020946;28;20117;-79
2021/06/16 03:10:46;;;;;;;512.47;389.88;;;;;;;;;;5022089;28;20452;-77
2021/06/16 03:13:12;;;;;;;509.40;388.08;;;;;;;;;;5024745;28;20484;-79
2021/06/16 03:15:41;;;;;;;505.42;383.73;;;;;;;;;;5010860;28;20514;-81
2021/06/16 03:18:07;;;;;;;507.95;385.98;;;;;;;;;;5006648;28;20022;-81
2021/06/16 03:20:33;;;;;;;506.83;385.17;;;;;;;;;;5021317;28;20037;-79
2021/06/16 03:23:00;;;;;;;507.90;388.20;;;;;;;;;;5008614;28;20121;-79
2021/06/16 03:25:26;;;;;;;507.83;385.38;;;;;;;;;;5022442;28;20110;-80
2021/06/16 03:27:52;;;;;;;505.13;381.65;;;;;;;;;;5012646;28;20030;-79
2021/06/16 03:30:20;;;;;;;506.80;382.38;;;;;;;;;;5010167;28;20033;-79
2021/06/16 03:32:47;;;;;;;506.52;385.45;;;;;;;;;;5006254;28;20111;-80
2021/06/16 03:35:13;;;;;;;511.08;390.08;;;;;;;;;;5007928;28;20057;-79
2021/06/16 03:37:40;;;;;;;511.00;387.90;;;;;;;;;;5006619;28;20131;-80
2021/06/16 03:40:07;;;;;;;516.17;390.70;;;;;;;;;;5007979;28;20068;-79
2021/06/16 03:42:33;;;;;;;509.63;384.88;;;;;;;;;;5023578;28;20015;-80
2021/06/16 03:45:03;;;;;;;508.08;383.05;;;;;;;;;;5003867;28;20419;-81
2021/06/16 03:47:29;;;;;;;511.90;389.23;;;;;;;;;;5004852;28;20029;-80
2021/06/16 03:49:57;;;;;;;516.05;395.00;;;;;;;;;;5018311;28;20097;-80
2021/06/16 03:52:23;;;;;;;511.73;387.98;;;;;;;;;;5008658;28;20037;-81
2021/06/16 03:54:49;;;;;;;512.10;387.05;;;;;;;;;;5013049;28;20032;-80
2021/06/16 03:57:19;;;;;;;512.65;390.02;;;;;;;;;;5022490;28;20060;-82
2021/06/16 03:59:45;;;;;;;518.17;395.30;;;;;;;;;;5007712;28;20484;-80
2021/06/16 04:02:11;;;;;;;513.97;389.30;;;;;;;;;;5014372;28;20284;-80
2021/06/16 04:04:37;;;;;;;509.30;388.13;;;;;;;;;;5016404;28;20087;-81
2021/06/16 04:07:04;;;;;;;509.90;388.02;;;;;;;;;;5010623;28;20024;-80
2021/06/16 04:09:30;;;;;;;505.98;387.25;;;;;;;;;;4997712;28;20030;-82
2021/06/16 04:11:56;;;;;;;510.77;395.17;;;;;;;;;;5007991;28;20045;-79
2021/06/16 04:14:25;;;;;;;510.92;387.52;;;;;;;;;;5009777;28;20029;-79
2021/06/16 04:16:55;;;;;;;504.23;379.92;;;;;;;;;;5011362;28;20061;-79
2021/06/16 04:19:21;;;;;;;506.73;377.77;;;;;;;;;;5012669;28;20106;-80
2021/06/16 04:21:47;;;;;;;509.92;392.45;;;;;;;;;;5008415;28;20034;-79
2021/06/16 04:24:13;;;;;;;509.35;395.77;;;;;;;;;;5008073;28;20034;-80
2021/06/16 04:26:39;;;;;;;506.48;388.20;;;;;;;;;;5017757;28;20033;-79
2021/06/16 04:29:05;;;;;;;504.13;382.17;;;;;;;;;;5015805;28;20029;-78
2021/06/16 04:31:31;;;;;;;509.00;389.42;;;;;;;;;;5009367;28;20018;-80
2021/06/16 04:34:00;;;;;;;507.67;388.75;;;;;;;;;;5019407;28;20360;-80
2021/06/16 04:36:26;;;;;;;509.33;392.17;;;;;;;;;;5013043;28;20033;-79
2021/06/16 04:38:52;;;;;;;510.77;400.17;;;;;;;;;;5008264;28;20030;-80
2021/06/16 04:41:18;;;;;;;512.72;396.67;;;;;;;;;;5015934;28;20072;-79
2021/06/16 04:43:44;;;;;;;508.30;395.30;;;;;;;;;;5005544;28;20052;-79
2021/06/16 04:46:10;;;;;;;513.17;408.50;;;;;;;;;;5021475;28;20041;-79
2021/06/16 04:48:36;;;;;;;508.98;395.65;;;;;;;;;;5029750;28;20029;-80
2021/06/16 04:51:02;;;;;;;506.27;392.92;;;;;;;;;;5024873;28;20018;-80
2021/06/16 04:53:28;;;;;;;557.28;398.30;;;;;;;;;;5021282;28;20044;-79
2021/06/16 04:55:54;;;;;;;508.88;403.23;;;;;;;;;;5000512;28;20025;-80
2021/06/16 04:58:20;;;;;;;508.83;399.42;;;;;;;;;;5007296;28;20045;-80
2021/06/16 05:00:46;;;;;;;512.45;403.58;;;;;;;;;;5008707;28;20033;-80
2021/06/16 05:03:12;;;;;;;510.65;404.55;;;;;;;;;;5024656;28;20025;-79
2021/06/16 05:05:38;;;;;;;511.27;405.42;;;;;;;;;;5014875;28;20088;-81
2021/06/16 05:08:04;;;;;;;508.80;404.55;;;;;;;;;;5024960;28;20040;-80
2021/06/16 05:10:30;;;;;;;526.63;411.77;;;;;;;;;;5009460;28;20029;-80
2021/06/16 05:12:56;;;;;;;511.58;405.25;;;;;;;;;;5027109;28;20026;-81
2021/06/16 05:15:22;;;;;;;510.40;407.77;;;;;;;;;;5010906;28;20057;-79
2021/06/16 05:17:48;;;;;;;509.45;406.42;;;;;;;;;;5028963;28;20432;-79
2021/06/16 05:20:15;;;;;;;509.80;408.00;;;;;;;;;;5010713;28;20055;-80
2021/06/16 05:22:41;;;;;;;511.05;413.90;;;;;;;;;;5013767;28;20032;-80
2021/06/16 05:25:08;;;;;;;514.20;415.08;;;;;;;;;;5015514;28;20053;-79
2021/06/16 05:27:35;;;;;;;511.52;415.05;;;;;;;;;;5011928;28;20064;-80
2021/06/16 05:30:01;;;;;;;514.47;416.83;;;;;;;;;;5012489;28;20029;-77
2021/06/16 05:32:27;;;;;;;507.60;409.45;;;;;;;;;;5008868;28;20548;-79
2021/06/16 05:34:53;;;;;;;511.38;420.88;;;;;;;;;;5009454;28;20030;-79
2021/06/16 05:37:20;;;;;;;513.13;416.23;;;;;;;;;;5026132;28;20067;-81
2021/06/16 05:39:46;;;;;;;513.33;424.25;;;;;;;;;;5002295;28;20060;-81
2021/06/16 05:42:12;;;;;;;514.17;421.17;;;;;;;;;;5014563;28;20112;-79
2021/06/16 05:44:38;;;;;;;507.48;415.15;;;;;;;;;;5027760;28;20125;-80
2021/06/16 05:47:04;;;;;;;510.60;420.30;;;;;;;;;;5016860;28;20514;-80
2021/06/16 05:49:32;;;;;;;510.00;420.40;;;;;;;;;;5029219;28;20034;-79
2021/06/16 05:51:58;;;;;;;506.63;416.15;;;;;;;;;;5012470;28;20033;-78
2021/06/16 05:54:24;;;;;;;511.85;424.67;;;;;;;;;;5005706;28;20080;-81
2021/06/16 05:56:50;;;;;;;512.35;425.38;;;;;;;;;;5003922;28;20021;-80
2021/06/16 05:59:16;;;;;;;512.72;426.15;;;;;;;;;;5011507;28;20055;-80
2021/06/16 06:01:42;;;;;;;511.88;428.60;;;;;;;;;;5014451;28;20436;-80
2021/06/16 06:04:08;;;;;;;511.73;430.13;;;;;;;;;;5015505;28;20079;-80
2021/06/16 06:06:35;;;;;;;509.60;427.30;;;;;;;;;;5025549;28;20642;-82
2021/06/16 06:09:01;;;;;;;510.88;428.45;;;;;;;;;;5012629;28;20029;-81
2021/06/16 06:11:27;;;;;;;513.55;434.55;;;;;;;;;;5015842;28;20029;-81
2021/06/16 06:13:53;;;;;;;512.28;433.50;;;;;;;;;;5014110;28;20087;-81
2021/06/16 06:16:19;;;;;;;514.70;440.38;;;;;;;;;;5005493;28;20040;-81
2021/06/16 06:18:45;;;;;;;512.60;436.85;;;;;;;;;;5013625;28;20048;-82
2021/06/16 06:21:11;;;;;;;514.15;441.52;;;;;;;;;;5011985;28;20423;-80
2021/06/16 06:23:37;;;;;;;514.30;441.92;;;;;;;;;;5024883;28;20064;-80
2021/06/16 06:26:04;;;;;;;514.53;438.70;;;;;;;;;;5021288;28;20072;-80
2021/06/16 06:28:30;;;;;;;514.20;439.90;;;;;;;;;;5016740;28;20030;-78
2021/06/16 06:30:56;;;;;;;514.63;444.35;;;;;;;;;;5007759;28;20037;-79
2021/06/16 06:33:22;;;;;;;513.67;445.65;;;;;;;;;;5003255;28;20030;-78
2021/06/16 06:35:48;;;;;;;514.10;445.63;;;;;;;;;;5027974;28;20371;-80
2021/06/16 06:38:14;;;;;;;513.95;449.58;;;;;;;;;;5004387;28;20072;-78
2021/06/16 06:40:40;;;;;;;515.08;454.63;;;;;;;;;;5002240;28;20041;-79
2021/06/16 06:43:06;;;;;;;512.72;449.13;;;;;;;;;;5004064;28;20030;-79
2021/06/16 06:45:32;;;;;;;515.15;451.70;;;;;;;;;;5020624;28;20029;-81
2021/06/16 06:47:58;;;;;;;521.35;461.20;;;;;;;;;;5020625;28;20034;-80
2021/06/16 06:50:24;;;;;;;513.65;455.23;;;;;;;;;;5029864;28;20029;-79
2021/06/16 06:52:50;;;;;;;515.38;456.60;;;;;;;;;;5005967;28;20036;-80
2021/06/16 06:55:17;;;;;;;511.60;453.23;;;;;;;;;;5020886;28;20088;-78
2021/06/16 06:57:43;;;;;;;516.88;459.45;;;;;;;;;;5016292;28;20576;-79
2021/06/16 07:00:10;;;;;;;514.85;458.10;;;;;;;;;;5014244;28;20037;-79
2021/06/16 07:02:36;;;;;;;524.70;467.27;;;;;;;;;;5017236;28;20029;-79
2021/06/16 07:05:02;;;;;;;517.05;459.65;;;;;;;;;;5009949;28;20121;-80
2021/06/16 07:07:28;;;;;;;521.63;464.38;;;;;;;;;;5015505;28;20036;-79
2021/06/16 07:09:54;;;;;;;521.95;464.60;;;;;;;;;;5006865;28;20041;-79
2021/06/16 07:12:21;;;;;;;519.25;462.17;;;;;;;;;;5023377;28;20022;-80
2021/06/16 07:14:47;;;;;;;523.47;466.23;;;;;;;;;;5016563;28;20026;-79
2021/06/16 07:17:13;;;;;;;544.28;484.98;;;;;;;;;;5025669;28;20025;-80
2021/06/16 07:19:39;;;;;;;530.72;473.45;;;;;;;;;;5014994;28;20095;-80
2021/06/16 07:22:05;;;;;;;536.63;478.88;;;;;;;;;;5002129;28;20026;-79
2021/06/16 07:24:31;;;;;;;533.92;476.35;;;;;;;;;;5017536;28;20033;-80
2021/06/16 07:26:57;;;;;;;546.33;488.13;;;;;;;;;;5008324;28;20042;-79
2021/06/16 07:29:23;;;;;;;539.30;481.83;;;;;;;;;;5007660;28;20029;-79
2021/06/16 07:31:50;;;;;;;536.58;479.42;;;;;;;;;;5025517;28;20034;-79
2021/06/16 07:34:16;;;;;;;541.50;484.25;;;;;;;;;;5023839;28;20037;-79
2021/06/16 07:36:42;;;;;;;536.60;479.48;;;;;;;;;;5010487;28;20048;-79
2021/06/16 07:39:08;;;;;;;541.95;484.60;;;;;;;;;;5009798;28;20563;-79
2021/06/16 07:41:35;;;;;;;545.75;487.08;;;;;;;;;;5019638;28;20344;-80
2021/06/16 07:44:01;;;;;;;540.10;482.42;;;;;;;;;;5010194;28;20117;-79
2021/06/16 07:46:27;;;;;;;535.17;477.58;;;;;;;;;;5022401;28;20120;-81
2021/06/16 07:48:53;;;;;;;542.72;484.60;;;;;;;;;;5016701;28;20025;-79
2021/06/16 07:51:19;;;;;;;548.80;490.77;;;;;;;;;;5010890;28;20021;-79
2021/06/16 07:53:45;;;;;;;549.17;491.05;;;;;;;;;;5026664;28;20079;-79
2021/06/16 07:56:11;;;;;;;541.33;483.88;;;;;;;;;;5021834;28;20022;-80
2021/06/16 07:58:39;;;;;;;548.20;489.83;;;;;;;;;;5026433;28;20594;-79
2021/06/16 08:01:05;;;;;;;553.63;495.30;;;;;;;;;;5027412;28;20127;-80
2021/06/16 08:03:31;;;;;;;553.63;495.17;;;;;;;;;;5005855;28;20025;-79
2021/06/16 08:05:57;;;;;;;559.00;500.17;;;;;;;;;;5011255;28;20337;-79
2021/06/16 08:08:23;;;;;;;561.22;502.67;;;;;;;;;;5021363;28;20040;-79
2021/06/16 08:10:50;;;;;;;562.25;503.35;;;;;;;;;;5015921;28;20128;-79
2021/06/16 08:13:16;;;;;;;563.10;504.75;;;;;;;;;;5016380;28;20493;-81
2021/06/16 08:15:42;;;;;;;563.17;504.55;;;;;;;;;;5010780;28;20025;-79
2021/06/16 08:18:08;;;;;;;565.10;506.67;;;;;;;;;;5026813;28;20032;-80
2021/06/16 08:20:39;;;;;;;559.38;501.23;;;;;;;;;;5028261;28;20025;-80
2021/06/16 08:23:07;;;;;;;567.33;508.48;;;;;;;;;;5007368;28;20040;-79
2021/06/16 08:25:33;;;;;;;566.45;508.20;;;;;;;;;;5018495;28;20070;-80
2021/06/16 08:27:59;;;;;;;570.13;511.80;;;;;;;;;;5004371;28;20034;-81
2021/06/16 08:30:26;;;;;;;569.13;510.60;;;;;;;;;;5023927;28;20096;-80
2021/06/16 08:32:52;;;;;;;574.85;516.10;;;;;;;;;;5030470;28;20022;-80
2021/06/16 08:35:18;;;;;;;571.22;512.78;;;;;;;;;;5013330;28;20034;-81
2021/06/16 08:37:46;;;;;;;575.17;516.22;;;;;;;;;;5012568;28;20030;-81
2021/06/16 08:40:12;;;;;;;575.47;516.78;;;;;;;;;;5023928;28;20021;-80
2021/06/16 08:42:38;;;;;;;589.00;529.35;;;;;;;;;;5007875;28;20371;-79
2021/06/16 08:45:04;;;;;;;579.17;520.42;;;;;;;;;;5027849;28;20340;-80
2021/06/16 08:47:30;;;;;;;577.15;518.33;;;;;;;;;;5025713;28;20038;-82
2021/06/16 08:49:57;;;;;;;588.53;529.00;;;;;;;;;;5009235;28;20037;-84
2021/06/16 08:52:23;;;;;;;579.17;520.47;;;;;;;;;;5010382;28;20353;-80
2021/06/16 08:54:49;;;;;;;587.05;526.22;;;;;;;;;;5013354;28;20033;-79
2021/06/16 08:57:15;;;;;;;585.22;526.35;;;;;;;;;;5003069;28;20038;-81
2021/06/16 08:59:40;;;;;;;581.80;523.75;;;;;;;;;;5008194;28;20137;-82
2021/06/16 09:02:06;;;;;;;583.75;525.47;;;;;;;;;;5008381;28;20025;-80
2021/06/16 09:04:47;;;;;;;595.85;537.33;;;;;;;;;;5000952;28;20041;-81
2021/06/16 09:07:21;;;;;;;600.08;541.17;;;;;;;;;;5002066;28;20040;-80
2021/06/16 09:09:47;;;;;;;605.75;546.40;;;;;;;;;;5017072;28;20040;-82
2021/06/16 09:12:18;;;;;;;600.08;541.08;;;;;;;;;;5007303;28;20026;-80
2021/06/16 09:14:56;;;;;;;593.58;535.65;;;;;;;;;;5006030;28;20056;-81
2021/06/16 09:17:28;;;;;;;600.00;541.67;;;;;;;;;;5011193;28;20364;-81
2021/06/16 09:19:55;;;;;;;603.88;545.13;;;;;;;;;;5011356;28;20060;-82
2021/06/16 09:22:27;;;;;;;615.28;555.88;;;;;;;;;;5012251;28;20047;-82
2021/06/16 09:25:03;;;;;;;606.95;548.88;;;;;;;;;;5008229;28;20471;-81
2021/06/16 09:27:51;;;;;;;613.78;554.92;;;;;;;;;;5010382;28;20041;-82
2021/06/16 09:30:17;;;;;;;613.35;554.67;;;;;;;;;;5008078;28;20120;-80
2021/06/16 09:32:43;;;;;;;613.00;554.70;;;;;;;;;;5009444;28;20105;-81
2021/06/16 09:35:22;;;;;;;624.67;565.40;;;;;;;;;;5004647;28;20051;-82
2021/06/16 09:37:50;;;;;;;627.47;567.67;;;;;;;;;;5011866;28;20116;-80
2021/06/16 09:40:34;;;;;;;615.95;557.20;;;;;;;;;;5011017;28;20427;-81
2021/06/16 09:43:05;;;;;;;628.72;569.70;;;;;;;;;;5014064;28;20034;-82
2021/06/16 09:45:31;;;;;;;641.67;582.20;;;;;;;;;;5007919;28;20621;-83
2021/06/16 09:47:59;;;;;;;646.00;587.17;;;;;;;;;;5011228;28;20051;-80
2021/06/16 09:50:26;;;;;;;652.88;593.67;;;;;;;;;;5010788;28;20025;-80
2021/06/16 09:52:52;;;;;;;660.88;601.30;;;;;;;;;;5005179;28;20041;-80
2021/06/16 09:55:21;;;;;;;648.67;590.40;;;;;;;;;;5007040;28;20076;-82
2021/06/16 09:58:07;;;;;;;662.37;602.83;;;;;;;;;;5009681;28;20033;-82
2021/06/16 10:00:38;;;;;;;655.63;596.88;;;;;;;;;;5006679;28;20323;-82
2021/06/16 10:03:15;;;;;;;660.78;602.33;;;;;;;;;;5026738;28;20030;-82
2021/06/16 10:05:59;;;;;;;651.20;593.08;;;;;;;;;;5010771;28;20116;-80
2021/06/16 10:08:27;;;;;;;669.03;609.90;;;;;;;;;;5005442;28;20033;-80
2021/06/16 10:10:54;;;;;;;685.55;626.50;;;;;;;;;;5002249;28;20088;-80
2021/06/16 10:13:26;;;;;;;667.72;609.90;;;;;;;;;;5002239;28;20059;-81
2021/06/16 10:15:54;;;;;;;685.15;626.08;;;;;;;;;;5013230;28;20025;-81
2021/06/16 10:18:21;;;;;;;694.80;634.97;;;;;;;;;;5016224;28;20091;-82
2021/06/16 10:20:48;;;;;;;714.97;655.45;;;;;;;;;;5013965;28;20395;-80
2021/06/16 10:23:18;;;;;;;730.38;669.85;;;;;;;;;;4997769;28;20148;-86
2021/06/16 10:25:44;;;;;;;714.85;652.67;;;;;;;;;;5022699;28;21589;-82
2021/06/16 10:28:28;;;;;;;718.47;658.45;;;;;;;;;;4955714;28;20166;-76
2021/06/16 10:31:12;;;;;;;748.97;688.15;;;;;;;;;;4953077;28;20038;-76
2021/06/16 10:33:41;;;;;;;760.08;699.13;;;;;;;;;;4949834;28;20050;-75
2021/06/16 10:36:08;;;;;;;773.97;712.58;;;;;;;;;;4948634;28;20050;-74
2021/06/16 10:38:47;;;;;;;768.10;705.95;;;;;;;;;;4956121;28;20038;-83
2021/06/16 10:44:43;;;;;;;775.25;715.05;;;;;;;;;;4919674;29;20449;-81
2021/06/16 10:47:10;;;;;;;779.47;719.65;;;;;;;;;;4929343;28;20126;-81
2021/06/16 10:49:55;;;;;;;785.05;724.10;;;;;;;;;;4958358;28;20047;-78
2021/06/16 10:52:29;;;;;;;766.40;706.58;;;;;;;;;;4946370;28;20030;-80
2021/06/16 10:54:55;;;;;;;759.47;699.67;;;;;;;;;;4951421;28;20069;-80
2021/06/16 10:57:21;;;;;;;744.83;684.97;;;;;;;;;;4948558;28;20039;-82
2021/06/16 10:59:48;;;;;;;727.90;668.80;;;;;;;;;;4990508;28;20049;-82
2021/06/16 11:02:14;;;;;;;723.30;663.85;;;;;;;;;;4996298;28;20128;-80
2021/06/16 11:04:46;;;;;;;708.25;649.35;;;;;;;;;;5011128;28;20144;-83
2021/06/16 11:07:33;;;;;;;713.75;654.78;;;;;;;;;;5003667;28;20456;-85
2021/06/16 11:10:06;;;;;;;703.30;644.72;;;;;;;;;;5008635;28;20064;-83
2021/06/16 11:16:25;;;;;;;709.97;650.50;;;;;;;;;;4905584;29;20033;-84
2021/06/16 11:19:19;;;;;;;711.35;652.55;;;;;;;;;;4911632;29;20070;-82
2021/06/16 11:22:33;;;;;;;;;;;;;;;;;;;;;
2021/06/16 11:28:44;;;;;;;688.72;631.67;;;;;;;;;;4843019;29;20049;-80
2021/06/16 11:31:15;;;;;;;694.28;636.70;;;;;;;;;;4816573;29;20378;-81
2021/06/16 11:33:52;;;;;;;687.67;630.83;;;;;;;;;;4838479;29;20037;-80
2021/06/16 11:36:27;;;;;;;683.95;626.83;;;;;;;;;;4895278;29;20043;-80
2021/06/16 11:39:06;;;;;;;679.38;622.45;;;;;;;;;;4930183;28;20042;-77
2021/06/16 11:41:33;;;;;;;690.57;631.97;;;;;;;;;;4980912;28;20065;-80
2021/06/16 11:44:01;;;;;;;686.53;629.28;;;;;;;;;;4994428;28;20620;-81
2021/06/16 11:46:30;;;;;;;694.30;636.78;;;;;;;;;;4985982;28;20503;-83
2021/06/16 11:48:56;;;;;;;;;;;;;;;;;;4997433;28;20034;-81
2021/06/16 11:51:34;;;;;;;721.70;663.78;;;;;;;;;;5004152;28;19914;-82
2021/06/16 11:54:02;;;;;;;721.05;663.53;;;;;;;;;;4996686;28;20023;-80
2021/06/16 11:56:28;;;;;;;743.20;684.88;;;;;;;;;;4986606;28;20089;-82
2021/06/16 11:58:54;;;;;;;731.55;673.88;;;;;;;;;;4998396;28;20332;-83
2021/06/16 12:01:21;;;;;;;739.63;682.13;;;;;;;;;;5014155;28;20472;-80
2021/06/16 12:04:13;;;;;;;755.00;696.35;;;;;;;;;;4998196;28;20109;-81
2021/06/16 12:06:39;;;;;;;756.97;699.20;;;;;;;;;;4997886;28;20047;-81
2021/06/16 12:09:05;;;;;;;773.17;714.97;;;;;;;;;;5010178;28;20023;-81
2021/06/16 12:11:34;;;;;;;767.97;709.80;;;;;;;;;;4994464;28;20022;-81
2021/06/16 12:14:08;;;;;;;764.72;706.67;;;;;;;;;;4994920;28;20058;-83
2021/06/16 12:16:35;;;;;;;759.28;700.85;;;;;;;;;;5008902;28;20577;-81
2021/06/16 12:19:12;;;;;;;752.58;694.47;;;;;;;;;;4997332;28;20088;-82
2021/06/16 12:21:38;;;;;;;754.75;696.80;;;;;;;;;;4990429;28;20037;-81
2021/06/16 12:24:19;;;;;;;742.30;684.47;;;;;;;;;;4991326;28;20030;-81
2021/06/16 12:27:04;;;;;;;737.92;680.25;;;;;;;;;;4993593;28;20054;-80
2021/06/16 12:29:31;;;;;;;744.08;685.88;;;;;;;;;;4983772;28;20100;-80
2021/06/16 12:32:01;;;;;;;763.70;705.10;;;;;;;;;;5006890;28;20092;-81
2021/06/16 12:37:10;;;;;;;757.95;699.83;;;;;;;;;;5002990;28;20038;-81
2021/06/16 12:39:37;;;;;;;751.72;693.67;;;;;;;;;;4985957;28;20057;-81
2021/06/16 12:42:06;;;;;;;756.40;698.72;;;;;;;;;;4989876;28;20022;-82
2021/06/16 12:44:41;;;;;;;757.83;700.05;;;;;;;;;;5003113;28;20040;-82
2021/06/16 12:47:19;;;;;;;762.38;704.28;;;;;;;;;;4988254;28;20022;-80
2021/06/16 12:49:56;;;;;;;750.28;692.50;;;;;;;;;;5003482;28;20084;-80
2021/06/16 12:52:33;;;;;;;747.67;689.80;;;;;;;;;;5006994;28;20440;-82
2021/06/16 12:55:17;;;;;;;736.00;678.60;;;;;;;;;;4987561;28;20125;-82
2021/06/16 12:57:51;;;;;;;722.72;664.80;;;;;;;;;;4991862;28;20118;-81
2021/06/16 13:00:18;;;;;;;715.08;657.42;;;;;;;;;;5000705;28;20038;-80
2021/06/16 13:02:45;;;;;;;712.67;654.72;;;;;;;;;;4999467;28;20053;-81
2021/06/16 13:05:14;;;;;;;715.85;658.05;;;;;;;;;;4990019;28;20361;-81
2021/06/16 13:07:45;;;;;;;708.88;651.53;;;;;;;;;;5003799;28;20416;-82
2021/06/16 13:10:15;;;;;;;705.33;647.47;;;;;;;;;;4988957;28;20026;-81
2021/06/16 13:12:51;;;;;;;694.03;636.55;;;;;;;;;;5002029;28;20546;-81
2021/06/16 13:15:17;;;;;;;669.88;613.22;;;;;;;;;;5012673;28;20718;-81
2021/06/16 13:17:45;;;;;;;667.58;610.45;;;;;;;;;;5004400;28;20609;-81
2021/06/16 13:20:11;;;;;;;657.78;600.72;;;;;;;;;;5000281;28;20452;-81
2021/06/16 13:22:41;;;;;;;662.33;604.60;;;;;;;;;;4981056;28;20030;-81
2021/06/16 13:25:07;;;;;;;647.05;589.88;;;;;;;;;;4985715;28;20053;-81
2021/06/16 13:28:06;;;;;;;655.30;598.10;;;;;;;;;;5006920;28;20494;-80
2021/06/16 13:30:41;;;;;;;650.42;592.97;;;;;;;;;;4977012;28;20475;-81
2021/06/16 13:33:11;;;;;;;651.47;594.00;;;;;;;;;;5000863;28;20044;-81
2021/06/16 13:35:37;;;;;;;664.47;606.90;;;;;;;;;;5011822;28;20418;-82
2021/06/16 13:38:03;;;;;;;682.95;624.95;;;;;;;;;;5022138;28;20037;-81
2021/06/16 13:40:29;;;;;;;705.13;646.88;;;;;;;;;;5018870;28;20018;-81
2021/06/16 13:42:56;;;;;;;727.60;667.60;;;;;;;;;;5010835;28;20064;-82
2021/06/16 13:45:26;;;;;;;728.00;669.63;;;;;;;;;;5005798;28;20026;-82
2021/06/16 13:47:52;;;;;;;718.08;659.97;;;;;;;;;;5010282;28;20029;-82
2021/06/16 13:50:18;;;;;;;711.40;652.97;;;;;;;;;;5009561;28;20041;-81
2021/06/16 13:52:44;;;;;;;690.95;633.53;;;;;;;;;;5023173;28;20025;-82
2021/06/16 13:55:10;;;;;;;683.20;625.63;;;;;;;;;;5015830;28;20115;-81
2021/06/16 13:57:36;;;;;;;694.83;635.67;;;;;;;;;;5011441;28;20033;-82
2021/06/16 14:00:03;;;;;;;688.88;630.45;;;;;;;;;;5013918;28;20050;-82
2021/06/16 14:02:31;;;;;;;692.15;633.80;;;;;;;;;;5018809;28;20037;-82
2021/06/16 14:04:57;;;;;;;701.30;642.90;;;;;;;;;;5003614;28;20088;-82
2021/06/16 14:07:23;;;;;;;707.15;648.63;;;;;;;;;;5015908;28;20022;-81
2021/06/16 14:09:51;;;;;;;713.97;655.35;;;;;;;;;;5020110;28;20478;-81
2021/06/16 14:12:18;;;;;;;717.05;658.13;;;;;;;;;;5022482;28;20053;-81
2021/06/16 14:14:45;;;;;;;709.83;651.33;;;;;;;;;;5017541;28;20352;-82